Time;durP1;ratioP1;P1;durP2;ratioP2;P2;SDS_P1;SDS_P2;PMS_P1;PMS_P2;Temp;Humidity;BMP_temperature;BMP_pressure;BME280_temperature;BME280_humidity;BME280_pressure;Samples;Min_cycle;Max_cycle;Signal;HPM_P1;HPM_P2
2023/06/12 00:00:47;;;;;;;8.73;3.15;;;;;;;18.09;73.35;97944.22;4411923;32;20105;-84
2023/06/12 00:03:15;;;;;;;8.18;2.80;;;;;;;18.00;74.02;97943.13;4425495;32;20158;-84
2023/06/12 00:05:43;;;;;;;9.43;3.08;;;;;;;18.06;72.68;97937.44;4424793;32;20098;-84
2023/06/12 00:08:13;;;;;;;6.40;2.60;;;;;;;18.53;70.91;97940.03;4425838;32;20104;-84
2023/06/12 00:10:42;;;;;;;8.43;3.10;;;;;;;17.63;75.49;97937.13;4425653;32;20100;-84
2023/06/12 00:13:10;;;;;;;9.32;2.83;;;;;;;17.74;76.33;97952.84;4425546;32;20174;-84
2023/06/12 00:15:37;;;;;;;6.53;2.92;;;;;;;17.35;79.07;97933.94;4425896;32;20129;-84
2023/06/12 00:18:04;;;;;;;11.12;3.28;;;;;;;18.53;73.26;97934.78;4426035;32;20102;-84
2023/06/12 00:20:32;;;;;;;8.23;2.85;;;;;;;18.45;74.00;97937.97;4425615;32;20433;-84
2023/06/12 00:22:59;;;;;;;11.43;3.00;;;;;;;18.94;71.66;97934.22;4426648;32;20102;-84
2023/06/12 00:25:26;;;;;;;9.27;2.87;;;;;;;18.69;71.80;97933.50;4426262;32;20105;-85
2023/06/12 00:27:53;;;;;;;8.18;3.25;;;;;;;19.17;69.30;97927.19;4426477;32;20144;-84
2023/06/12 00:30:21;;;;;;;7.70;3.40;;;;;;;19.17;69.30;97927.19;4426441;32;20121;-84
2023/06/12 00:32:47;;;;;;;11.52;3.65;;;;;;;19.23;68.61;97924.88;4426117;32;20158;-84
2023/06/12 00:35:18;;;;;;;11.23;3.80;;;;;;;19.39;67.87;97921.06;4426647;32;20090;-84
2023/06/12 00:37:48;;;;;;;8.80;3.25;;;;;;;19.37;67.27;97923.81;4426442;32;20085;-84
2023/06/12 00:40:16;;;;;;;8.90;2.90;;;;;;;19.82;65.56;97924.50;4425599;32;20445;-85
2023/06/12 00:42:45;;;;;;;10.95;3.47;;;;;;;19.67;65.74;97917.88;4425581;32;20116;-84
2023/06/12 00:45:13;;;;;;;7.78;3.10;;;;;;;19.58;66.53;97923.88;4425636;32;20141;-84
2023/06/12 00:47:40;;;;;;;8.52;3.50;;;;;;;19.70;65.92;97924.66;4425746;32;20153;-84
2023/06/12 00:50:12;;;;;;;10.18;3.37;;;;;;;20.31;63.67;97920.41;4426065;32;20082;-84
2023/06/12 00:52:45;;;;;;;8.15;2.90;;;;;;;21.01;60.73;97919.63;4425857;32;20153;-84
2023/06/12 00:55:14;;;;;;;8.90;3.33;;;;;;;21.19;59.43;97921.63;4425722;32;20110;-84
2023/06/12 00:57:46;;;;;;;8.60;2.90;;;;;;;20.55;61.40;97919.31;4426285;32;20065;-84
2023/06/12 01:00:14;;;;;;;6.32;2.80;;;;;;;19.77;63.61;97921.41;4425728;32;20102;-86
2023/06/12 01:02:44;;;;;;;7.82;2.85;;;;;;;18.98;65.60;97928.63;4425891;32;20172;-84
2023/06/12 01:05:14;;;;;;;7.35;2.70;;;;;;;19.63;63.31;97929.56;4425892;32;20112;-84
2023/06/12 01:07:48;;;;;;;10.35;3.10;;;;;;;18.92;64.92;97926.47;4411938;32;20093;-85
2023/06/12 01:10:29;;;;;;;8.38;3.53;;;;;;;19.16;63.83;97925.53;4411898;32;20133;-84
2023/06/12 01:12:57;;;;;;;7.65;2.92;;;;;;;18.53;65.90;97927.78;4412340;32;20110;-84
2023/06/12 01:15:24;;;;;;;7.60;3.20;;;;;;;17.47;71.31;97929.59;4425325;32;20085;-84
2023/06/12 01:17:51;;;;;;;8.00;2.70;;;;;;;18.78;66.40;97924.97;4425715;32;20766;-84
2023/06/12 01:20:18;;;;;;;7.53;2.78;;;;;;;19.13;64.03;97931.81;4425269;32;20160;-84
2023/06/12 01:22:54;;;;;;;7.62;2.78;;;;;;;18.24;67.71;97934.38;4425094;32;20447;-84
2023/06/12 01:25:32;;;;;;;8.43;2.95;;;;;;;18.51;66.73;97934.91;4425313;32;20102;-84
2023/06/12 01:28:08;;;;;;;8.55;3.15;;;;;;;18.83;64.31;97929.84;4425115;32;20105;-84
2023/06/12 01:30:46;;;;;;;12.73;2.75;;;;;;;18.29;66.05;97927.03;4410897;32;20089;-84
2023/06/12 01:33:20;;;;;;;6.82;2.75;;;;;;;18.13;67.07;97922.97;4424765;32;20106;-84
2023/06/12 01:35:50;;;;;;;7.72;3.00;;;;;;;17.03;71.87;97924.97;4411405;32;20126;-84
2023/06/12 01:38:20;;;;;;;11.90;2.95;;;;;;;17.72;68.46;97915.63;4424988;32;20211;-83
2023/06/12 01:40:49;;;;;;;8.93;2.60;;;;;;;17.87;68.33;97918.88;4424921;32;20090;-84
2023/06/12 01:43:16;;;;;;;10.20;2.85;;;;;;;18.09;67.12;97918.13;4424917;32;20098;-84
2023/06/12 01:45:44;;;;;;;8.38;2.55;;;;;;;17.17;71.49;97927.41;4425025;32;20153;-84
2023/06/12 01:48:13;;;;;;;7.90;2.65;;;;;;;17.86;68.35;97925.88;4424862;32;20431;-84
2023/06/12 01:50:40;;;;;;;8.45;2.45;;;;;;;17.81;68.57;97932.38;4424423;32;20105;-84
2023/06/12 01:53:07;;;;;;;7.55;2.58;;;;;;;18.45;66.42;97920.53;4424732;32;20149;-84
2023/06/12 01:55:36;;;;;;;6.05;2.45;;;;;;;18.39;66.41;97923.59;4424873;32;20116;-84
2023/06/12 01:58:03;;;;;;;7.25;2.80;;;;;;;18.80;64.90;97922.22;4424891;32;20137;-84
2023/06/12 02:00:30;;;;;;;7.22;2.70;;;;;;;16.47;75.75;97911.47;4425110;32;20104;-84
2023/06/12 02:02:57;;;;;;;7.57;2.67;;;;;;;17.71;71.07;97906.13;4425086;32;20161;-84
2023/06/12 02:05:24;;;;;;;9.85;2.65;;;;;;;17.71;68.68;97913.13;4424737;32;20093;-84
2023/06/12 02:07:51;;;;;;;9.75;2.87;;;;;;;17.69;69.39;97912.37;4424944;32;20168;-84
2023/06/12 02:10:18;;;;;;;8.10;2.83;;;;;;;18.12;67.04;97917.88;4424523;32;20133;-84
2023/06/12 02:12:45;;;;;;;9.13;2.78;;;;;;;17.95;67.48;97915.69;4424447;32;20122;-84
2023/06/12 02:15:12;;;;;;;7.72;2.55;;;;;;;17.82;67.61;97916.59;4425102;32;20102;-84
2023/06/12 02:17:39;;;;;;;8.48;2.65;;;;;;;16.66;73.38;97919.69;4424319;32;20089;-84
2023/06/12 02:20:07;;;;;;;8.05;2.58;;;;;;;17.85;68.60;97912.94;4424366;32;20074;-84
2023/06/12 02:22:34;;;;;;;9.80;2.70;;;;;;;17.77;68.71;97930.94;4424498;32;20120;-84
2023/06/12 02:25:02;;;;;;;8.80;2.78;;;;;;;17.55;68.90;97924.66;4424166;32;20157;-84
2023/06/12 02:27:30;;;;;;;8.88;3.05;;;;;;;17.32;70.96;97920.25;4425216;32;20157;-84
2023/06/12 02:29:57;;;;;;;7.57;2.80;;;;;;;17.71;69.35;97919.16;4426515;32;20104;-84
2023/06/12 02:32:25;;;;;;;7.60;2.60;;;;;;;17.12;72.20;97913.03;4425853;32;20708;-84
2023/06/12 02:34:52;;;;;;;8.02;2.70;;;;;;;17.66;69.71;97908.22;4426343;32;20485;-84
2023/06/12 02:37:19;;;;;;;6.95;2.50;;;;;;;16.15;76.92;97905.84;4426379;32;20144;-84
2023/06/12 02:39:46;;;;;;;7.82;2.87;;;;;;;15.76;80.35;97911.97;4425785;32;20553;-84
2023/06/12 02:42:14;;;;;;;6.55;2.90;;;;;;;16.00;80.10;97922.50;4426360;32;20128;-83
2023/06/12 02:44:41;;;;;;;8.68;3.10;;;;;;;16.00;80.08;97918.13;4426290;32;20157;-84
2023/06/12 02:47:08;;;;;;;10.48;2.97;;;;;;;16.27;79.34;97914.59;4425806;32;20137;-84
2023/06/12 02:49:37;;;;;;;8.25;3.37;;;;;;;16.33;78.68;97925.44;4426100;32;20081;-84
2023/06/12 02:52:05;;;;;;;9.80;3.30;;;;;;;16.39;78.22;97914.63;4426364;32;20192;-83
2023/06/12 02:54:33;;;;;;;6.47;2.87;;;;;;;16.33;78.82;97924.59;4425863;32;20114;-84
2023/06/12 02:57:00;;;;;;;9.13;3.15;;;;;;;15.43;84.78;97923.59;4426482;32;20100;-84
2023/06/12 02:59:27;;;;;;;6.97;3.03;;;;;;;16.65;76.40;97936.25;4426664;32;20153;-84
2023/06/12 03:01:54;;;;;;;8.30;3.22;;;;;;;16.86;74.59;97936.56;4426311;32;20117;-84
2023/06/12 03:04:21;;;;;;;12.13;3.42;;;;;;;15.97;79.00;97943.53;4426264;32;20114;-84
2023/06/12 03:06:52;;;;;;;7.62;2.97;;;;;;;16.84;75.93;97933.25;4425858;32;20082;-84
2023/06/12 03:09:22;;;;;;;10.30;2.90;;;;;;;17.07;73.76;97929.00;4425815;32;20153;-84
2023/06/12 03:11:53;;;;;;;8.80;3.25;;;;;;;16.41;77.55;97928.34;4426167;32;20158;-83
2023/06/12 03:14:24;;;;;;;7.50;2.78;;;;;;;16.34;78.65;97932.31;4425992;32;20112;-85
2023/06/12 03:16:51;;;;;;;7.05;3.08;;;;;;;16.74;76.69;97935.66;4426277;32;20116;-84
2023/06/12 03:19:18;;;;;;;8.80;3.17;;;;;;;16.96;75.59;97931.53;4426264;32;20074;-84
2023/06/12 03:21:45;;;;;;;8.82;2.90;;;;;;;16.45;78.15;97924.59;4425918;32;20140;-84
2023/06/12 03:24:13;;;;;;;7.65;3.08;;;;;;;17.61;72.89;97933.81;4426182;32;20166;-84
2023/06/12 03:26:41;;;;;;;8.23;3.35;;;;;;;17.83;70.17;97933.91;4426329;32;20081;-84
2023/06/12 03:29:08;;;;;;;8.18;2.87;;;;;;;17.88;69.84;97929.22;4425697;32;20086;-84
2023/06/12 03:31:35;;;;;;;8.98;2.97;;;;;;;17.73;69.97;97927.72;4426196;32;20145;-84
2023/06/12 03:34:03;;;;;;;9.05;2.97;;;;;;;16.81;74.38;97930.84;4426225;32;20584;-84
2023/06/12 03:36:33;;;;;;;8.32;3.47;;;;;;;17.14;72.46;97929.41;4425852;32;20158;-84
2023/06/12 03:39:02;;;;;;;8.25;3.10;;;;;;;17.63;70.17;97931.91;4425225;32;20494;-84
2023/06/12 03:41:31;;;;;;;7.68;3.17;;;;;;;17.34;71.33;97923.62;4426178;32;20121;-84
2023/06/12 03:43:59;;;;;;;6.35;2.72;;;;;;;17.08;73.42;97925.47;4425621;32;20435;-84
2023/06/12 03:46:30;;;;;;;8.65;2.90;;;;;;;17.11;73.06;97925.22;4426074;32;20144;-84
2023/06/12 03:48:58;;;;;;;8.32;3.03;;;;;;;16.64;75.09;97931.97;4425868;32;20101;-84
2023/06/12 03:51:25;;;;;;;6.87;2.90;;;;;;;16.69;75.18;97931.69;4425930;32;20153;-84
2023/06/12 03:53:52;;;;;;;6.87;2.70;;;;;;;17.18;73.22;97929.06;4426101;32;20461;-84
2023/06/12 03:56:19;;;;;;;6.15;2.45;;;;;;;17.57;70.75;97937.59;4425911;32;20116;-85
2023/06/12 03:58:46;;;;;;;8.32;3.83;;;;;;;17.35;71.23;97936.53;4426196;32;20090;-83
2023/06/12 04:01:13;;;;;;;6.90;2.90;;;;;;;17.47;70.86;97940.03;4425928;32;20162;-84
2023/06/12 04:03:40;;;;;;;7.32;2.65;;;;;;;17.65;70.31;97943.06;4425633;32;20528;-84
2023/06/12 04:06:07;;;;;;;7.53;2.87;;;;;;;17.16;71.10;97940.56;4425896;32;20172;-84
2023/06/12 04:08:34;;;;;;;9.05;3.05;;;;;;;18.09;66.70;97937.22;4426002;32;20082;-84
2023/06/12 04:11:03;;;;;;;6.97;2.90;;;;;;;18.11;66.43;97929.28;4425225;32;20090;-85
2023/06/12 04:13:30;;;;;;;9.27;3.28;;;;;;;18.74;64.04;97941.00;4425812;32;20086;-84
2023/06/12 04:15:57;;;;;;;6.03;2.70;;;;;;;18.64;64.17;97938.28;4425777;32;20160;-84
2023/06/12 04:18:24;;;;;;;9.18;3.40;;;;;;;19.14;61.86;97940.47;4425339;32;20094;-84
2023/06/12 04:20:54;;;;;;;6.72;2.85;;;;;;;19.39;60.95;97940.22;4425287;32;20116;-84
2023/06/12 04:23:22;;;;;;;7.60;2.67;;;;;;;19.41;60.87;97940.91;4425503;32;20116;-84
2023/06/12 04:25:50;;;;;;;8.77;3.05;;;;;;;19.45;62.40;97944.94;4425248;32;20097;-85
2023/06/12 04:28:17;;;;;;;4.93;2.47;;;;;;;22.04;55.66;97948.09;4425509;32;20451;-84
2023/06/12 04:30:45;;;;;;;6.35;2.70;;;;;;;23.83;50.31;97947.78;4425134;32;20145;-85
2023/06/12 04:33:12;;;;;;;7.85;2.80;;;;;;;25.07;46.69;97953.75;4425590;32;20108;-84
2023/06/12 04:35:39;;;;;;;7.55;3.05;;;;;;;25.43;45.75;97950.91;4425499;32;20168;-85
2023/06/12 04:38:06;;;;;;;7.07;3.17;;;;;;;25.05;44.44;97953.09;4425137;32;20082;-85
2023/06/12 04:40:35;;;;;;;7.68;2.97;;;;;;;24.98;45.37;97950.22;4425176;32;20109;-84
2023/06/12 04:43:06;;;;;;;6.68;2.90;;;;;;;24.15;46.44;97944.59;4425423;32;20098;-84
2023/06/12 04:45:34;;;;;;;7.43;3.00;;;;;;;22.69;48.82;97941.19;4424905;32;20100;-85
2023/06/12 04:48:01;;;;;;;7.82;2.53;;;;;;;22.09;50.70;97942.44;4425387;32;20074;-84
2023/06/12 04:50:30;;;;;;;5.25;2.60;;;;;;;21.76;52.04;97943.66;4424644;32;20369;-84
2023/06/12 04:52:57;;;;;;;6.57;2.62;;;;;;;21.70;52.13;97952.94;4424871;32;20106;-84
2023/06/12 04:55:28;;;;;;;6.90;2.50;;;;;;;21.61;53.10;97961.62;4425277;32;20176;-84
2023/06/12 04:57:56;;;;;;;9.20;3.00;;;;;;;21.37;52.54;97959.37;4425358;32;20449;-84
2023/06/12 05:00:23;;;;;;;7.75;2.60;;;;;;;21.08;54.38;97959.28;4424813;32;20159;-84
2023/06/12 05:02:50;;;;;;;6.75;2.72;;;;;;;21.14;53.91;97956.09;4411364;32;20621;-84
2023/06/12 05:05:19;;;;;;;7.32;2.70;;;;;;;21.65;53.55;97963.00;4425104;32;20154;-84
2023/06/12 05:07:47;;;;;;;6.97;2.85;;;;;;;22.06;52.06;97971.59;4424810;32;20169;-85
2023/06/12 05:10:15;;;;;;;7.95;2.92;;;;;;;20.93;55.25;97955.34;4424911;32;20117;-84
2023/06/12 05:12:41;;;;;;;7.75;2.87;;;;;;;21.62;55.09;97969.38;4425035;32;20545;-84
2023/06/12 05:15:09;;;;;;;8.38;2.95;;;;;;;21.70;53.73;97967.88;4424844;32;20089;-85
2023/06/12 05:17:37;;;;;;;5.72;2.45;;;;;;;22.01;53.27;97965.91;4425053;32;20475;-84
2023/06/12 05:20:08;;;;;;;8.05;2.90;;;;;;;22.95;52.71;97959.78;4424523;32;20168;-85
2023/06/12 05:22:36;;;;;;;8.30;2.92;;;;;;;23.03;52.31;97961.72;4425145;32;20089;-84
2023/06/12 05:25:04;;;;;;;6.85;2.50;;;;;;;23.29;49.62;97960.06;4424934;32;20081;-84
2023/06/12 05:27:31;;;;;;;6.85;2.70;;;;;;;23.69;48.28;97958.00;4424771;32;20479;-84
2023/06/12 05:29:58;;;;;;;6.82;2.97;;;;;;;22.37;51.24;97953.88;4424692;32;20142;-84
2023/06/12 05:32:25;;;;;;;6.65;2.60;;;;;;;22.08;51.86;97975.75;4411217;32;20493;-84
2023/06/12 05:34:52;;;;;;;5.87;2.53;;;;;;;22.13;52.00;97972.72;4424633;32;20090;-84
2023/06/12 05:37:19;;;;;;;6.43;2.72;;;;;;;22.74;51.12;97967.88;4411162;32;20500;-84
2023/06/12 05:39:46;;;;;;;4.43;2.17;;;;;;;22.68;49.18;97962.38;4424839;32;20094;-84
2023/06/12 05:42:13;;;;;;;6.57;2.42;;;;;;;22.59;49.17;97961.44;4424600;32;20154;-84
2023/06/12 05:44:40;;;;;;;9.38;2.67;;;;;;;21.40;50.39;97964.38;4424891;32;20149;-84
2023/06/12 05:47:08;;;;;;;6.82;2.45;;;;;;;22.02;51.14;97967.59;4411055;32;20078;-85
2023/06/12 05:49:36;;;;;;;6.62;2.70;;;;;;;22.03;52.56;97966.63;4424708;32;20551;-85
2023/06/12 05:52:05;;;;;;;5.87;2.20;;;;;;;21.88;51.00;97960.94;4425200;32;20106;-85
2023/06/12 05:54:33;;;;;;;5.12;2.17;;;;;;;21.48;51.14;97969.78;4425218;32;20097;-84
2023/06/12 05:57:00;;;;;;;6.03;2.35;;;;;;;21.35;51.00;97972.63;4425466;32;20082;-84
2023/06/12 05:59:27;;;;;;;8.32;2.62;;;;;;;21.73;51.89;97968.41;4425519;32;20101;-85
2023/06/12 06:01:55;;;;;;;6.75;2.50;;;;;;;21.34;53.08;97970.97;4426170;32;20508;-84
2023/06/12 06:04:22;;;;;;;6.97;2.47;;;;;;;21.09;52.85;97974.06;4427335;32;20100;-84
2023/06/12 06:06:52;;;;;;;5.93;2.47;;;;;;;21.34;52.27;97976.22;4427472;32;20128;-84
2023/06/12 06:09:19;;;;;;;5.87;2.65;;;;;;;21.70;52.63;97970.50;4426565;32;20180;-84
2023/06/12 06:11:46;;;;;;;6.20;2.10;;;;;;;21.01;53.55;97966.00;4426913;32;20162;-84
2023/06/12 06:14:13;;;;;;;6.47;2.47;;;;;;;21.23;54.74;97978.09;4427096;32;20146;-85
2023/06/12 06:16:40;;;;;;;6.10;2.70;;;;;;;21.36;52.01;97981.31;4427216;32;20107;-85
2023/06/12 06:19:25;;;;;;;7.62;2.87;;;;;;;21.21;53.26;97977.41;4430826;32;20166;-82
2023/06/12 06:21:52;;;;;;;5.07;2.17;;;;;;;21.90;52.90;97980.87;4426269;32;20114;-80
2023/06/12 06:24:19;;;;;;;3.53;1.80;;;;;;;21.27;51.35;97964.63;4426632;32;20152;-81
2023/06/12 06:26:46;;;;;;;4.40;2.12;;;;;;;21.31;51.62;97970.41;4426636;32;20104;-82
2023/06/12 06:29:14;;;;;;;6.35;2.33;;;;;;;20.81;53.15;97951.97;4430568;32;20106;-83
2023/06/12 06:31:41;;;;;;;5.90;2.37;;;;;;;20.88;53.57;97965.41;4427779;32;20498;-81
2023/06/12 06:34:10;;;;;;;7.87;2.50;;;;;;;21.50;51.13;97972.25;4426867;32;20472;-81
2023/06/12 06:36:38;;;;;;;5.47;2.42;;;;;;;21.37;51.74;97975.97;4430184;32;20113;-82
2023/06/12 06:39:05;;;;;;;5.50;2.15;;;;;;;22.03;50.42;97975.34;4428561;32;20453;-82
2023/06/12 06:41:32;;;;;;;5.95;2.10;;;;;;;21.59;49.97;97967.03;4426422;32;20116;-82
2023/06/12 06:43:59;;;;;;;7.03;2.45;;;;;;;20.89;50.87;97972.31;4427421;32;20089;-83
2023/06/12 06:46:26;;;;;;;7.37;2.55;;;;;;;21.68;49.91;97981.09;4426702;32;20054;-83
2023/06/12 06:48:55;;;;;;;7.47;2.83;;;;;;;22.52;46.91;97978.72;4430528;32;20358;-82
2023/06/12 06:51:22;;;;;;;7.50;2.15;;;;;;;22.43;46.42;97976.94;4425559;32;20137;-81
2023/06/12 06:53:49;;;;;;;4.90;2.20;;;;;;;21.45;48.81;97982.31;4411821;32;20086;-81
2023/06/12 06:56:16;;;;;;;8.15;2.50;;;;;;;20.46;49.81;97974.16;4428051;32;20081;-81
2023/06/12 06:58:43;;;;;;;7.72;2.50;;;;;;;21.19;49.55;97980.16;4426140;32;20110;-83
2023/06/12 07:01:11;;;;;;;4.95;1.90;;;;;;;21.74;49.71;97977.12;4426587;32;20089;-82
2023/06/12 07:03:38;;;;;;;5.62;2.50;;;;;;;22.78;46.09;97976.31;4425523;32;20150;-82
2023/06/12 07:06:05;;;;;;;8.60;2.70;;;;;;;22.92;47.63;97978.50;4426971;32;20503;-82
2023/06/12 07:08:33;;;;;;;4.80;2.12;;;;;;;23.45;46.03;97974.37;4428314;32;20101;-82
2023/06/12 07:11:00;;;;;;;5.25;2.08;;;;;;;22.93;46.69;97980.16;4429171;32;20166;-82
2023/06/12 07:13:26;;;;;;;5.75;2.30;;;;;;;23.50;45.59;97985.25;4430323;32;20106;-82
2023/06/12 07:15:53;;;;;;;7.00;2.40;;;;;;;24.22;44.54;97977.25;4433274;32;20086;-82
2023/06/12 07:18:21;;;;;;;5.07;2.60;;;;;;;24.66;44.34;97976.44;4431117;32;20082;-83
2023/06/12 07:20:48;;;;;;;6.50;2.05;;;;;;;24.52;43.96;97976.03;4417814;32;20102;-82
2023/06/12 07:23:15;;;;;;;6.57;2.50;;;;;;;25.15;42.66;97976.72;4433379;32;20092;-82
2023/06/12 07:25:42;;;;;;;6.80;2.70;;;;;;;24.64;43.77;97973.13;4433110;32;20089;-83
2023/06/12 07:28:09;;;;;;;6.32;2.60;;;;;;;24.56;44.48;97976.53;4432457;32;20106;-83
2023/06/12 07:30:36;;;;;;;8.43;2.47;;;;;;;25.23;42.45;97976.75;4432603;32;20080;-82
2023/06/12 07:33:03;;;;;;;8.30;3.15;;;;;;;24.01;43.70;97970.66;4432602;32;20089;-82
2023/06/12 07:35:30;;;;;;;8.57;2.70;;;;;;;24.72;42.29;97970.53;4431181;32;20150;-82
2023/06/12 07:37:57;;;;;;;7.57;2.62;;;;;;;24.29;43.14;97966.94;4436679;32;20062;-83
2023/06/12 07:40:24;;;;;;;9.15;2.30;;;;;;;25.62;39.46;97963.81;4438352;32;20454;-82
2023/06/12 07:42:51;;;;;;;4.97;2.35;;;;;;;24.04;42.05;97968.56;4432640;32;20081;-82
2023/06/12 07:45:18;;;;;;;6.60;2.60;;;;;;;24.34;41.27;97961.22;4436780;32;20116;-82
2023/06/12 07:47:47;;;;;;;6.53;2.42;;;;;;;25.49;40.37;97972.19;4423927;32;20119;-83
2023/06/12 07:50:22;;;;;;;4.97;2.20;;;;;;;25.33;40.19;97967.72;4434742;32;20089;-84
2023/06/12 07:52:49;;;;;;;5.30;2.33;;;;;;;24.12;43.26;97965.16;4415641;32;20133;-84
2023/06/12 07:55:16;;;;;;;8.07;2.65;;;;;;;25.23;41.70;97955.63;4431047;32;20111;-84
2023/06/12 07:57:43;;;;;;;6.07;2.55;;;;;;;25.02;41.04;97956.88;4437608;32;20130;-83
2023/06/12 08:00:11;;;;;;;6.47;2.85;;;;;;;24.75;41.53;97959.66;4438203;32;20070;-83
2023/06/12 08:02:38;;;;;;;5.22;2.28;;;;;;;27.00;38.44;97955.81;4432125;32;20168;-85
2023/06/12 08:05:06;;;;;;;5.62;2.17;;;;;;;26.53;40.29;97963.72;4414454;32;20086;-84
2023/06/12 08:07:34;;;;;;;4.87;2.30;;;;;;;26.73;39.69;97964.19;4427535;32;20091;-83
2023/06/12 08:10:01;;;;;;;4.50;1.92;;;;;;;25.57;40.84;97961.66;4417343;32;20074;-84
2023/06/12 08:12:28;;;;;;;9.82;2.70;;;;;;;23.39;44.81;97949.44;4432555;32;21094;-84
2023/06/12 08:14:55;;;;;;;5.30;2.25;;;;;;;25.29;40.37;97963.72;4429855;32;20086;-84
2023/06/12 08:17:22;;;;;;;4.72;2.30;;;;;;;25.25;41.64;97964.22;4429835;32;20113;-84
2023/06/12 08:19:49;;;;;;;5.37;2.47;;;;;;;25.98;38.78;97956.47;4432219;32;20074;-84
2023/06/12 08:22:15;;;;;;;9.23;2.40;;;;;;;25.95;40.45;97954.16;4427501;32;20153;-85
2023/06/12 08:24:44;;;;;;;6.80;2.53;;;;;;;26.35;39.33;97947.19;4427752;32;20354;-84
2023/06/12 08:27:11;;;;;;;4.05;2.00;;;;;;;26.07;39.28;97952.00;4427459;32;20739;-84
2023/06/12 08:29:39;;;;;;;6.47;2.33;;;;;;;26.03;38.48;97959.44;4425515;32;20101;-82
2023/06/12 08:32:07;;;;;;;6.47;2.70;;;;;;;25.21;41.41;97954.97;4427921;32;20456;-84
2023/06/12 08:34:34;;;;;;;6.05;1.98;;;;;;;24.49;41.24;97944.69;4429497;32;20151;-84
2023/06/12 08:37:01;;;;;;;7.25;2.42;;;;;;;24.13;41.59;97950.97;4428511;32;20118;-85
2023/06/12 08:39:28;;;;;;;5.75;2.40;;;;;;;25.65;39.75;97959.03;4426936;32;20161;-85
2023/06/12 08:41:59;;;;;;;4.70;2.12;;;;;;;25.02;40.65;97964.78;4426001;32;20086;-84
2023/06/12 08:44:26;;;;;;;4.18;2.03;;;;;;;25.13;41.38;97960.22;4425347;32;20425;-84
2023/06/12 08:46:56;;;;;;;5.85;1.90;;;;;;;25.12;40.91;97961.22;4425247;32;20117;-85
2023/06/12 08:49:25;;;;;;;4.85;1.92;;;;;;;24.46;41.07;97950.28;4425527;32;20121;-86
2023/06/12 08:51:52;;;;;;;3.47;1.85;;;;;;;24.78;39.98;97962.84;4411191;32;20093;-85
2023/06/12 08:54:19;;;;;;;4.28;1.87;;;;;;;25.01;40.85;97957.87;4411544;32;20078;-85
2023/06/12 08:56:46;;;;;;;5.20;1.80;;;;;;;24.25;42.47;97949.78;4426592;32;20112;-85
2023/06/12 08:59:14;;;;;;;8.00;2.10;;;;;;;23.93;41.58;97960.88;4426421;32;20790;-85
2023/06/12 09:01:42;;;;;;;6.82;2.55;;;;;;;23.93;41.73;97958.25;4425265;32;20093;-85
2023/06/12 09:04:18;;;;;;;6.18;2.28;;;;;;;25.11;41.55;97954.28;4425130;32;20105;-86
2023/06/12 09:06:46;;;;;;;6.45;2.20;;;;;;;25.59;39.65;97956.22;4398722;32;20105;-86
2023/06/12 09:09:13;;;;;;;5.93;2.17;;;;;;;25.77;40.62;97958.75;4401497;32;20478;-84
2023/06/12 09:11:40;;;;;;;4.40;2.10;;;;;;;24.39;40.26;97956.31;4427388;32;20110;-84
2023/06/12 09:14:08;;;;;;;6.10;2.00;;;;;;;24.61;41.68;97960.25;4426341;32;20097;-84
2023/06/12 09:16:35;;;;;;;7.47;2.62;;;;;;;24.24;42.16;97951.59;4411448;32;20110;-84
2023/06/12 09:19:04;;;;;;;5.75;2.40;;;;;;;25.35;40.75;97962.28;4424315;32;20159;-85
2023/06/12 09:21:31;;;;;;;3.85;1.98;;;;;;;26.60;38.13;97953.31;4425089;32;20149;-86
2023/06/12 09:23:58;;;;;;;5.65;2.05;;;;;;;25.82;39.81;97944.03;4425163;32;20716;-84
2023/06/12 09:26:25;;;;;;;8.02;2.28;;;;;;;25.38;40.15;97954.00;4428608;32;20520;-84
2023/06/12 09:28:53;;;;;;;5.18;2.12;;;;;;;25.67;38.96;97949.13;4425623;32;20149;-84
2023/06/12 09:31:21;;;;;;;4.90;1.90;;;;;;;25.90;38.95;97945.88;4411234;32;20148;-85
2023/06/12 09:33:52;;;;;;;5.37;2.05;;;;;;;25.86;39.09;97944.56;4411073;32;20089;-84
2023/06/12 09:36:20;;;;;;;5.43;1.90;;;;;;;27.45;37.51;97937.59;4410438;32;20110;-84
2023/06/12 09:38:49;;;;;;;6.90;1.90;;;;;;;25.96;37.81;97939.94;4411035;32;20168;-84
2023/06/12 09:41:21;;;;;;;8.20;2.45;;;;;;;24.95;40.36;97950.53;4424292;32;20445;-84
2023/06/12 09:43:51;;;;;;;3.60;1.73;;;;;;;26.12;37.09;97944.38;4411118;32;20169;-84
2023/06/12 09:46:24;;;;;;;4.55;2.00;;;;;;;26.57;37.13;97935.09;4410801;32;20166;-84
2023/06/12 09:48:55;;;;;;;5.47;2.20;;;;;;;25.02;39.18;97945.50;4413627;32;20114;-85
2023/06/12 09:51:23;;;;;;;8.13;2.92;;;;;;;24.99;39.60;97951.03;4420576;32;20070;-83
2023/06/12 09:53:51;;;;;;;6.55;1.80;;;;;;;26.56;37.09;97947.50;4426067;32;20102;-83
2023/06/12 09:56:18;;;;;;;4.28;1.50;;;;;;;25.41;37.99;97947.56;4414779;32;20130;-83
2023/06/12 09:58:47;;;;;;;7.40;2.00;;;;;;;25.13;38.83;97954.94;4425316;32;20110;-83
2023/06/12 10:01:17;;;;;;;4.07;1.70;;;;;;;25.57;38.85;97948.44;4426038;32;20092;-82
2023/06/12 10:03:46;;;;;;;6.35;2.17;;;;;;;24.39;40.64;97948.41;4424432;32;20112;-83
2023/06/12 10:06:13;;;;;;;6.35;1.75;;;;;;;24.70;41.41;97959.31;4413319;32;20400;-83
2023/06/12 10:08:41;;;;;;;5.95;2.20;;;;;;;24.07;40.92;97960.34;4426122;32;20127;-83
2023/06/12 10:11:09;;;;;;;6.32;1.85;;;;;;;25.94;37.85;97955.94;4411811;32;20096;-83
2023/06/12 10:13:36;;;;;;;5.62;2.15;;;;;;;26.06;39.04;97955.66;4425894;32;20094;-83
2023/06/12 10:16:04;;;;;;;4.25;2.00;;;;;;;27.29;34.61;97949.09;4424850;32;20111;-83
2023/06/12 10:18:31;;;;;;;4.47;1.80;;;;;;;27.20;35.70;97950.94;4412169;32;20473;-83
2023/06/12 10:21:00;;;;;;;3.80;1.70;;;;;;;25.78;37.45;97952.47;4425792;32;20428;-83
2023/06/12 10:23:27;;;;;;;7.45;1.98;;;;;;;26.74;35.26;97945.47;4411293;32;20078;-83
2023/06/12 10:25:57;;;;;;;7.28;2.50;;;;;;;25.28;38.23;97942.75;4425436;32;20151;-82
2023/06/12 10:28:24;;;;;;;4.53;2.10;;;;;;;24.83;39.39;97946.53;4400260;32;20110;-82
2023/06/12 10:31:12;;;;;;;2.92;1.62;;;;;;;24.74;39.63;97943.00;4423827;32;20082;-83
2023/06/12 10:34:01;;;;;;;4.32;1.80;;;;;;;24.60;41.29;97940.12;4423871;32;20116;-83
2023/06/12 10:36:41;;;;;;;5.35;1.92;;;;;;;25.49;38.89;97939.69;4423673;32;20157;-83
2023/06/12 10:39:27;;;;;;;4.43;1.83;;;;;;;25.74;39.24;97943.25;4423737;32;20163;-83
2023/06/12 10:41:58;;;;;;;3.45;1.25;;;;;;;26.64;38.49;97930.78;4423965;32;20193;-87
2023/06/12 10:44:39;;;;;;;4.70;2.00;;;;;;;26.79;38.82;97937.84;4423919;32;20445;-84
2023/06/12 10:47:23;;;;;;;5.43;2.00;;;;;;;26.34;38.53;97932.31;4409827;32;20119;-82
2023/06/12 10:49:58;;;;;;;4.30;2.20;;;;;;;26.12;37.03;97926.72;4412060;32;20504;-83
2023/06/12 10:52:26;;;;;;;3.70;1.70;;;;;;;25.58;38.27;97917.56;4426316;32;20108;-82
2023/06/12 10:55:13;;;;;;;3.92;1.70;;;;;;;24.74;40.61;97914.00;4426008;32;20232;-82
2023/06/12 10:57:48;;;;;;;4.75;2.10;;;;;;;23.65;41.50;97913.53;4425833;32;20121;-82
2023/06/12 11:00:20;;;;;;;5.20;2.00;;;;;;;24.63;41.36;97916.91;4425713;32;20347;-82
2023/06/12 11:02:58;;;;;;;3.75;1.73;;;;;;;25.66;38.48;97925.53;4426088;32;20108;-82
2023/06/12 11:05:27;;;;;;;5.75;2.35;;;;;;;24.02;41.93;97912.50;4426120;32;20090;-83
2023/06/12 11:08:06;;;;;;;5.85;2.20;;;;;;;24.30;44.06;97926.41;4426014;32;20171;-82
2023/06/12 11:10:35;;;;;;;4.15;1.75;;;;;;;25.09;41.50;97928.87;4412041;32;20144;-82
2023/06/12 11:13:05;;;;;;;4.40;2.20;;;;;;;25.31;39.66;97924.81;4425897;32;20101;-81
2023/06/12 11:15:40;;;;;;;7.65;2.30;;;;;;;25.49;40.41;97923.84;4425941;32;20141;-82
2023/06/12 11:18:08;;;;;;;4.72;2.10;;;;;;;26.15;39.12;97917.59;4426625;32;20131;-82
2023/06/12 11:20:35;;;;;;;11.90;2.87;;;;;;;24.98;41.75;97920.34;4426435;32;20145;-81
2023/06/12 11:23:02;;;;;;;6.72;2.35;;;;;;;25.47;40.51;97917.88;4426618;32;20153;-81
2023/06/12 11:25:44;;;;;;;3.92;1.98;;;;;;;25.43;41.05;97921.84;4412135;32;20534;-81
2023/06/12 11:28:19;;;;;;;6.05;2.17;;;;;;;25.46;41.08;97918.88;4412364;32;20120;-81
2023/06/12 11:30:50;;;;;;;5.70;2.12;;;;;;;26.05;39.14;97903.72;4411912;32;20124;-82
2023/06/12 11:33:35;;;;;;;6.35;2.05;;;;;;;25.97;39.19;97912.53;4426394;32;20085;-83
2023/06/12 11:36:03;;;;;;;5.40;2.17;;;;;;;25.00;39.05;97910.47;4425970;32;20153;-82
2023/06/12 11:38:30;;;;;;;4.35;1.98;;;;;;;25.31;39.72;97916.88;4426147;32;20112;-82
2023/06/12 11:41:00;;;;;;;8.80;2.30;;;;;;;25.27;40.92;97914.72;4426217;32;20094;-82